Terminal Aerodrome Forecast
Issued by NWS Newport/Morehead City, NC

Home | Current Version | Previous Version | Text Only | Print | Product List | Glossary On
Versions: 1 2 3 4 5 6 7 8 9 10 11 12 13 14 15 16 17 18 19 20
000
FTUS42 KMHX 021846 AAA
TAFEWN
TAF AMD
KEWN 021846Z 0219/0318 22011G17KT P6SM VCTS BKN040CB
      TEMPO 0219/0220 VRB25KT 6SM TSRA BKN030CB
     FM022100 20012KT P6SM VCTS BKN040CB
     FM030300 20008KT P6SM BKN040
     FM030700 21007KT 5SM -SHRA SCT010 BKN025
     FM031400 22009G17KT 6SM -SHRA BKN035=

USA.gov is the U.S. government's official web portal to all federal, state and local government web resources and services.